Mount Vernon, Washington
Current Conditions -  °F | °C
As of 7:15 PM on Sunday 21 Dec 2014 (Local Time) from KBVS Reporting Station
Few Clouds Few Clouds  
Wind Chill: 50°   Ceiling: Unl
Heat Index: 50°   Visibility: 10mi
Dew Point: 45°   Wind: 5mph
Humidity: 82%   Direction: 220°SW
Pressure: 30.05"   Gusts: NA
Location:  48.42°N, 122.33°W
Report Text: KBVS 220315Z AUTO 22004KT 10SM FEW032 10/07 A3005 RMK A01 P000
Loading
Personal Weather Stations






























Interactive Weather Map New forecast layout! Learn more

10-Day Weather Forecast

Advertisements
Track Severe Weather on mobile